SBMN/MAO METAR and TAF weather

Enter ICAO airport designator
Station Type Date Time Source
SBMN METAR 2020/04/09 20:00 UTC NOAA

SBMN 092000Z 16002KT 9999 SCT011 BKN100 26/24 Q1010


Station Type Date Time Source
SBMN Decoded METAR 2020/04/09 20:00 UTC NOAA

Manaus Aeroporto , Brazil (SBMN) 03-09S 059-59W 84M
Apr 09, 2020 - 04:00 PM EDT / 2020.04.09 2000 UTC
Wind: from the SSE (160 degrees) at 2 MPH (2 KT):0
Visibility: greater than 7 mile(s):0
Sky conditions: mostly cloudy
Temperature: 78 F (26 C)
Dew Point: 75 F (24 C)
Relative Humidity: 88%
Pressure (altimeter): 29.83 in. Hg (1010 hPa)
ob: SBMN 092000Z 16002KT 9999 SCT011 BKN100 26/24 Q1010
cycle: 20

Station Type Date Time Source
SBMN TAF 2020/04/09 18:54 UTC NOAA

TAF SBMN 091500Z 0918/1006 09008KT 9999 SCT014 FEW025TCU TX28/0918Z TN25/1006Z
BECMG 0922/0923 11005KT SCT010
BECMG 1001/1003 04006KT
RMK PFM

Example: see airport list